createdAt,value
2017-08-17T00:02:12.763Z,6.33
2017-08-17T00:04:42.993Z,7.20
2017-08-17T00:07:12.488Z,6.77
2017-08-17T00:09:43.706Z,6.50
2017-08-17T00:12:12.442Z,7.40
2017-08-17T00:14:41.778Z,6.30
2017-08-17T00:17:10.408Z,7.20
2017-08-17T00:19:38.841Z,6.60
2017-08-17T00:22:09.430Z,6.63
2017-08-17T00:24:37.849Z,6.43
2017-08-17T00:27:08.761Z,5.67
2017-08-17T00:29:36.763Z,5.80
2017-08-17T00:32:05.044Z,6.40
2017-08-17T00:34:33.879Z,6.17
2017-08-17T00:37:02.842Z,6.20
2017-08-17T00:39:31.797Z,7.13
2017-08-17T00:42:03.439Z,6.77
2017-08-17T00:44:32.903Z,6.13
2017-08-17T00:47:02.631Z,6.10
2017-08-17T00:49:32.413Z,6.10
2017-08-17T00:52:02.007Z,8.73
2017-08-17T00:54:31.161Z,7.17
2017-08-17T00:57:01.107Z,7.00
2017-08-17T00:59:30.975Z,6.00
2017-08-17T01:02:00.369Z,5.87
2017-08-17T01:04:30.090Z,6.30
2017-08-17T01:06:59.779Z,6.50
2017-08-17T01:09:27.831Z,6.83
2017-08-17T01:11:57.019Z,7.10
2017-08-17T01:14:25.113Z,7.27
2017-08-17T01:16:54.356Z,6.90
2017-08-17T01:19:25.408Z,7.20
2017-08-17T01:21:57.710Z,6.10
2017-08-17T01:24:28.433Z,6.60
2017-08-17T01:26:57.070Z,7.00
2017-08-17T01:29:25.837Z,6.70
2017-08-17T01:31:57.531Z,6.57
2017-08-17T01:34:27.157Z,5.87
2017-08-17T01:36:56.773Z,6.23
2017-08-17T01:39:25.042Z,5.40
2017-08-17T01:41:54.169Z,5.57
2017-08-17T01:44:23.566Z,5.90
2017-08-17T01:46:53.618Z,5.83
2017-08-17T01:49:22.128Z,5.70
2017-08-17T01:51:51.425Z,6.57
2017-08-17T01:54:20.268Z,6.60
2017-08-17T01:56:50.698Z,6.10
2017-08-17T01:59:22.686Z,5.50
2017-08-17T02:01:51.412Z,5.90
2017-08-17T02:04:22.136Z,5.87
2017-08-17T02:06:51.324Z,5.60
2017-08-17T02:09:20.680Z,5.73
2017-08-17T02:11:49.100Z,6.50
2017-08-17T02:14:20.965Z,4.50
2017-08-17T02:16:49.846Z,5.03
2017-08-17T02:19:19.813Z,5.40
2017-08-17T02:21:49.257Z,5.33
2017-08-17T02:24:18.823Z,4.63
2017-08-17T02:26:46.833Z,4.93
2017-08-17T02:29:14.750Z,5.00
2017-08-17T02:31:44.353Z,5.93
2017-08-17T02:34:12.329Z,5.83
2017-08-17T02:36:42.493Z,6.23
2017-08-17T02:39:10.882Z,6.40
2017-08-17T02:41:40.730Z,5.63
2017-08-17T02:44:08.594Z,6.87
2017-08-17T02:46:36.643Z,7.07
2017-08-17T02:49:04.570Z,7.90
2017-08-17T02:51:33.483Z,8.07
2017-08-17T02:54:03.077Z,7.00
2017-08-17T02:56:32.086Z,7.70
2017-08-17T02:59:00.933Z,7.10
2017-08-17T03:01:29.594Z,7.27
2017-08-17T03:03:59.467Z,6.60
2017-08-17T03:06:27.506Z,6.10
2017-08-17T03:08:57.698Z,7.60
2017-08-17T03:13:58.810Z,6.73
2017-08-17T03:16:28.593Z,6.97
2017-08-17T03:18:58.324Z,7.07
2017-08-17T03:21:29.911Z,8.43
2017-08-17T03:23:58.952Z,6.77
2017-08-17T03:26:26.976Z,7.83
2017-08-17T03:28:57.446Z,7.00
2017-08-17T03:31:26.843Z,7.43
2017-08-17T03:33:56.380Z,7.23
2017-08-17T03:36:24.983Z,7.80
2017-08-17T03:38:55.991Z,8.70
2017-08-17T03:41:25.469Z,7.23
2017-08-17T03:43:54.583Z,8.00
2017-08-17T03:46:23.718Z,7.20
2017-08-17T03:48:55.788Z,7.97
2017-08-17T03:51:24.503Z,7.60
2017-08-17T03:53:56.617Z,8.50
2017-08-17T03:56:25.262Z,8.17
2017-08-17T03:58:53.072Z,8.23
2017-08-17T04:01:24.407Z,7.83
2017-08-17T04:03:53.552Z,8.60
2017-08-17T04:06:22.024Z,8.77
2017-08-17T04:08:49.897Z,8.93
2017-08-17T04:11:18.549Z,9.30
2017-08-17T04:13:47.282Z,7.63
2017-08-17T04:16:15.537Z,8.03
2017-08-17T04:18:43.424Z,7.33
2017-08-17T04:21:11.912Z,8.17
2017-08-17T04:23:41.553Z,6.87
2017-08-17T04:26:11.750Z,6.53
2017-08-17T04:28:39.705Z,7.90
2017-08-17T04:31:09.970Z,9.50
2017-08-17T04:33:38.804Z,7.50
2017-08-17T04:36:08.032Z,8.10
2017-08-17T04:38:36.024Z,7.13
2017-08-17T04:41:06.099Z,7.27
2017-08-17T04:43:34.976Z,6.53
2017-08-17T04:46:04.216Z,7.40
2017-08-17T04:48:33.579Z,7.77
2017-08-17T04:51:01.882Z,7.90
2017-08-17T04:53:31.971Z,7.37
2017-08-17T04:56:17.411Z,7.10
2017-08-17T04:58:45.698Z,7.60
2017-08-17T05:01:17.181Z,7.30
2017-08-17T05:03:46.173Z,7.10
2017-08-17T05:06:15.407Z,7.00
2017-08-17T05:08:43.300Z,6.90
2017-08-17T05:11:14.096Z,6.20
2017-08-17T05:13:43.110Z,5.87
2017-08-17T05:16:11.962Z,5.90
2017-08-17T05:18:41.021Z,6.37
2017-08-17T05:21:10.448Z,6.63
2017-08-17T05:23:39.181Z,7.10
2017-08-17T05:26:13.548Z,8.20
2017-08-17T05:28:41.673Z,9.83
2017-08-17T05:31:09.433Z,9.20
2017-08-17T05:33:38.541Z,13.30
2017-08-17T05:36:08.360Z,14.13
2017-08-17T05:38:38.688Z,16.30
2017-08-17T05:41:09.105Z,16.53
2017-08-17T05:43:39.480Z,18.93
2017-08-17T05:46:08.192Z,20.20
2017-08-17T05:48:36.087Z,22.30
2017-08-17T05:51:06.348Z,22.53
2017-08-17T05:53:35.693Z,24.43
2017-08-17T05:56:05.286Z,24.20
2017-08-17T05:58:34.280Z,24.70
2017-08-17T06:01:03.406Z,25.20
2017-08-17T06:03:33.704Z,27.07
2017-08-17T06:06:02.830Z,27.00
2017-08-17T06:08:32.243Z,28.57
2017-08-17T06:11:00.163Z,31.83
2017-08-17T06:13:30.663Z,31.83
2017-08-17T06:15:58.644Z,28.77
2017-08-17T06:18:29.946Z,31.00
2017-08-17T06:20:58.648Z,29.97
2017-08-17T06:23:26.533Z,30.50
2017-08-17T06:25:54.856Z,31.03
2017-08-17T06:28:23.031Z,30.53
2017-08-17T06:30:52.153Z,30.13
2017-08-17T06:33:21.484Z,29.40
2017-08-17T06:35:51.111Z,26.03
2017-08-17T06:38:20.637Z,26.20
2017-08-17T06:40:49.338Z,26.53
2017-08-17T06:43:18.178Z,25.93
2017-08-17T06:45:47.240Z,25.63
2017-08-17T06:48:18.148Z,24.80
2017-08-17T06:50:47.534Z,24.40
2017-08-17T06:53:16.043Z,23.00
2017-08-17T06:55:45.877Z,20.80
2017-08-17T06:58:14.404Z,21.40
2017-08-17T07:00:44.190Z,22.10
2017-08-17T07:03:15.368Z,20.80
2017-08-17T07:05:44.507Z,22.23
2017-08-17T07:08:14.004Z,21.13
2017-08-17T07:10:42.247Z,20.37
2017-08-17T07:13:11.230Z,21.13
2017-08-17T07:15:42.671Z,20.00
2017-08-17T07:18:11.984Z,20.13
2017-08-17T07:20:43.394Z,19.03
2017-08-17T07:23:11.642Z,19.20
2017-08-17T07:25:39.716Z,18.43
2017-08-17T07:28:10.162Z,17.40
2017-08-17T07:30:39.290Z,18.83
2017-08-17T07:33:07.682Z,18.67
2017-08-17T07:35:36.540Z,16.60
2017-08-17T07:38:04.538Z,16.20
2017-08-17T07:40:33.238Z,17.00
2017-08-17T07:43:02.897Z,15.50
2017-08-17T07:45:32.993Z,15.67
2017-08-17T07:48:02.527Z,15.20
2017-08-17T07:50:33.333Z,16.37
2017-08-17T07:53:03.353Z,15.60
2017-08-17T07:55:33.906Z,15.10
2017-08-17T07:58:03.568Z,14.43
2017-08-17T08:00:32.320Z,14.73
2017-08-17T08:03:02.611Z,14.70
2017-08-17T08:05:31.449Z,13.87
2017-08-17T08:08:03.249Z,14.50
2017-08-17T08:10:33.306Z,13.13
2017-08-17T08:13:03.546Z,13.33
2017-08-17T08:15:33.722Z,13.00
2017-08-17T08:18:02.732Z,12.90
2017-08-17T08:20:31.005Z,14.27
2017-08-17T08:23:01.417Z,12.40
2017-08-17T08:25:30.033Z,11.70
2017-08-17T08:27:59.230Z,13.10
2017-08-17T08:30:29.465Z,11.90
2017-08-17T08:32:58.644Z,13.03
2017-08-17T08:35:27.439Z,11.10
2017-08-17T08:37:57.678Z,12.33
2017-08-17T08:40:26.502Z,12.17
2017-08-17T08:42:55.607Z,11.77
2017-08-17T08:45:26.403Z,12.10
2017-08-17T08:47:57.669Z,13.57
2017-08-17T08:50:27.518Z,11.50
2017-08-17T08:52:56.940Z,12.10
2017-08-17T08:55:26.724Z,12.00
2017-08-17T08:57:56.605Z,13.83
2017-08-17T09:00:27.592Z,12.90
2017-08-17T09:02:56.474Z,10.90
2017-08-17T09:05:27.267Z,11.13
2017-08-17T09:07:57.846Z,11.30
2017-08-17T09:10:29.211Z,13.23
2017-08-17T09:12:58.350Z,12.20
2017-08-17T09:15:29.053Z,13.80
2017-08-17T09:17:57.792Z,9.43
2017-08-17T09:20:27.420Z,10.37
2017-08-17T09:22:55.323Z,9.73
2017-08-17T09:25:25.337Z,8.70
2017-08-17T09:27:55.438Z,9.17
2017-08-17T09:30:25.658Z,9.50
2017-08-17T09:32:55.046Z,9.13
2017-08-17T09:35:27.194Z,8.93
2017-08-17T09:37:57.038Z,9.60
2017-08-17T09:40:29.192Z,9.63
2017-08-17T09:42:58.461Z,10.27
2017-08-17T09:45:27.009Z,10.40
2017-08-17T09:47:55.780Z,9.87
2017-08-17T09:50:24.875Z,10.10
2017-08-17T09:52:53.999Z,9.30
2017-08-17T09:55:22.646Z,12.37
2017-08-17T09:57:52.869Z,12.17
2017-08-17T10:00:22.733Z,12.60
2017-08-17T10:02:52.485Z,11.23
2017-08-17T10:05:21.518Z,11.90
2017-08-17T10:07:51.204Z,10.93
2017-08-17T10:10:19.830Z,12.53
2017-08-17T10:12:50.253Z,12.67
2017-08-17T10:15:20.819Z,11.27
2017-08-17T10:17:49.489Z,10.40
2017-08-17T10:20:19.776Z,10.90
2017-08-17T10:22:50.346Z,11.17
2017-08-17T10:25:19.666Z,12.63
2017-08-17T10:27:48.334Z,12.20
2017-08-17T10:30:16.375Z,12.40
2017-08-17T10:32:46.125Z,11.50
2017-08-17T10:35:16.373Z,12.60
2017-08-17T10:37:45.326Z,11.63
2017-08-17T10:40:16.833Z,12.20
2017-08-17T10:42:46.610Z,9.40
2017-08-17T10:45:15.469Z,10.63
2017-08-17T10:47:44.842Z,11.90
2017-08-17T10:50:12.912Z,9.87
2017-08-17T10:52:42.670Z,13.33
2017-08-17T10:55:11.126Z,9.43
2017-08-17T10:57:41.268Z,9.33
2017-08-17T11:00:10.517Z,10.17
2017-08-17T11:02:38.522Z,9.03
2017-08-17T11:05:08.370Z,10.43
2017-08-17T11:07:37.733Z,10.93
2017-08-17T11:10:07.689Z,11.40
2017-08-17T11:12:36.766Z,13.10
2017-08-17T11:15:08.029Z,12.63
2017-08-17T11:17:38.306Z,10.83
2017-08-17T11:20:06.813Z,11.03
2017-08-17T11:22:36.549Z,11.17
2017-08-17T11:25:07.674Z,11.13
2017-08-17T11:27:36.903Z,9.27
2017-08-17T11:30:06.146Z,12.23
2017-08-17T11:32:35.429Z,12.50
2017-08-17T11:35:07.120Z,11.23
2017-08-17T11:37:36.533Z,12.63
2017-08-17T11:40:04.447Z,12.00
2017-08-17T11:42:33.016Z,12.80
2017-08-17T11:45:02.740Z,12.40
2017-08-17T11:47:32.655Z,12.70
2017-08-17T11:50:02.213Z,11.80
2017-08-17T11:52:30.798Z,11.23
2017-08-17T11:54:59.947Z,12.07
2017-08-17T11:57:29.201Z,12.03
2017-08-17T11:59:59.170Z,12.27
2017-08-17T12:02:27.709Z,12.00
2017-08-17T12:05:00.153Z,13.10
2017-08-17T12:07:29.584Z,12.80
2017-08-17T12:09:58.371Z,13.30
2017-08-17T12:12:31.681Z,11.70
2017-08-17T12:15:00.820Z,12.00
2017-08-17T12:17:29.913Z,11.80
2017-08-17T12:20:00.021Z,13.00
2017-08-17T12:22:31.420Z,11.77
2017-08-17T12:25:01.690Z,12.13
2017-08-17T12:27:31.354Z,11.57
2017-08-17T12:30:00.074Z,11.77
2017-08-17T12:32:29.612Z,12.10
2017-08-17T12:34:58.460Z,12.97
2017-08-17T12:37:28.258Z,12.70
2017-08-17T12:39:59.378Z,12.90
2017-08-17T12:42:30.403Z,12.80
2017-08-17T12:45:01.777Z,12.90
2017-08-17T12:47:30.222Z,12.30
2017-08-17T12:49:58.726Z,12.67
2017-08-17T12:52:29.650Z,11.10
2017-08-17T12:55:00.536Z,11.53
2017-08-17T12:57:30.612Z,12.20
2017-08-17T12:59:58.549Z,12.57
2017-08-17T13:02:31.374Z,11.90
2017-08-17T13:05:00.124Z,11.80
2017-08-17T13:07:29.200Z,11.13
2017-08-17T13:09:58.777Z,11.97
2017-08-17T13:12:28.355Z,11.60
2017-08-17T13:14:57.823Z,10.50
2017-08-17T13:17:28.428Z,10.73
2017-08-17T13:19:57.383Z,11.53
2017-08-17T13:22:27.740Z,10.33
2017-08-17T13:24:56.662Z,10.60
2017-08-17T13:27:25.695Z,10.43
2017-08-17T13:29:55.736Z,9.37
2017-08-17T13:34:58.648Z,8.70
2017-08-17T13:37:26.469Z,9.67
2017-08-17T13:39:55.484Z,8.27
2017-08-17T13:42:24.247Z,8.40
2017-08-17T13:44:53.607Z,8.30
2017-08-17T13:47:21.996Z,8.30
2017-08-17T13:49:52.535Z,8.10
2017-08-17T13:52:21.048Z,8.10
2017-08-17T13:54:49.525Z,9.17
2017-08-17T13:57:18.988Z,7.53
2017-08-17T13:59:48.356Z,7.80
2017-08-17T14:02:17.416Z,7.97
2017-08-17T14:04:47.707Z,8.50
2017-08-17T14:07:20.558Z,9.00
2017-08-17T14:09:50.362Z,8.23
2017-08-17T14:12:18.617Z,7.93
2017-08-17T14:14:48.957Z,8.43
2017-08-17T14:17:16.989Z,8.00
2017-08-17T14:19:47.450Z,8.50
2017-08-17T14:22:15.404Z,8.43
2017-08-17T14:24:43.292Z,7.67
2017-08-17T14:27:14.326Z,8.20
2017-08-17T14:29:43.383Z,7.90
2017-08-17T14:32:11.442Z,8.63
2017-08-17T14:34:40.800Z,7.40
2017-08-17T14:37:11.106Z,8.37
2017-08-17T14:39:41.027Z,7.40
2017-08-17T14:42:11.042Z,7.20
2017-08-17T14:44:40.175Z,7.47
2017-08-17T14:47:09.569Z,7.90
2017-08-17T14:49:40.087Z,7.67
2017-08-17T14:52:09.341Z,7.33
2017-08-17T14:54:37.598Z,7.97
2017-08-17T14:57:05.618Z,7.90
2017-08-17T14:59:36.014Z,6.83
2017-08-17T15:02:04.515Z,8.03
2017-08-17T15:04:33.112Z,8.10
2017-08-17T15:07:03.547Z,8.20
2017-08-17T15:09:31.989Z,8.33
2017-08-17T15:12:00.154Z,8.60
2017-08-17T15:14:28.360Z,7.67
2017-08-17T15:16:58.074Z,8.47
2017-08-17T15:19:25.925Z,8.27
2017-08-17T15:21:53.891Z,8.33
2017-08-17T15:24:22.251Z,8.43
2017-08-17T15:26:50.761Z,8.23
2017-08-17T15:29:20.170Z,8.90
2017-08-17T15:31:49.965Z,9.60
2017-08-17T15:34:17.833Z,9.43
2017-08-17T15:36:49.392Z,9.80
2017-08-17T15:39:17.325Z,9.90
2017-08-17T15:41:47.998Z,10.37
2017-08-17T15:44:18.004Z,10.10
2017-08-17T15:46:46.756Z,10.47
2017-08-17T15:49:17.149Z,11.20
2017-08-17T15:51:45.856Z,10.77
2017-08-17T15:54:14.810Z,11.43
2017-08-17T15:56:42.904Z,11.20
2017-08-17T15:59:13.088Z,11.83
2017-08-17T16:01:42.931Z,12.37
2017-08-17T16:04:13.119Z,12.00
2017-08-17T16:06:42.655Z,12.20
2017-08-17T16:09:12.025Z,11.60
2017-08-17T16:11:42.182Z,11.73
2017-08-17T16:14:12.209Z,11.77
2017-08-17T16:16:41.718Z,13.07
2017-08-17T16:19:11.110Z,11.97
2017-08-17T16:21:40.349Z,14.17
2017-08-17T16:24:08.688Z,12.80
2017-08-17T16:26:40.051Z,12.90
2017-08-17T16:29:08.730Z,13.10
2017-08-17T16:31:39.247Z,12.30
2017-08-17T16:34:09.532Z,12.77
2017-08-17T16:36:38.163Z,13.53
2017-08-17T16:39:09.192Z,12.80
2017-08-17T16:41:39.038Z,13.57
2017-08-17T16:44:08.181Z,14.20
2017-08-17T16:46:37.746Z,14.60
2017-08-17T16:49:08.103Z,13.20
2017-08-17T16:51:37.927Z,14.67
2017-08-17T16:54:07.533Z,14.83
2017-08-17T16:56:36.049Z,15.50
2017-08-17T16:59:05.582Z,14.10
2017-08-17T17:01:35.785Z,13.73
2017-08-17T17:04:05.418Z,13.33
2017-08-17T17:06:36.229Z,13.20
2017-08-17T17:09:04.905Z,13.10
2017-08-17T17:11:34.675Z,14.60
2017-08-17T17:14:03.432Z,13.57
2017-08-17T17:16:33.242Z,13.93
2017-08-17T17:19:02.616Z,14.13
2017-08-17T17:21:30.521Z,13.97
2017-08-17T17:23:59.837Z,14.10
2017-08-17T17:26:29.088Z,15.83
2017-08-17T17:28:57.187Z,14.60
2017-08-17T17:31:25.336Z,14.37
2017-08-17T17:33:54.654Z,14.73
2017-08-17T17:36:23.047Z,16.17
2017-08-17T17:38:51.054Z,16.73
2017-08-17T17:41:20.478Z,16.20
2017-08-17T17:43:50.582Z,17.60
2017-08-17T17:46:20.097Z,17.50
2017-08-17T17:48:51.482Z,17.73
2017-08-17T17:51:20.962Z,17.60
2017-08-17T17:53:50.883Z,18.23
2017-08-17T17:56:19.883Z,18.97
2017-08-17T17:58:48.902Z,19.20
2017-08-17T18:01:17.692Z,19.27
2017-08-17T18:03:47.557Z,18.53
2017-08-17T18:06:16.760Z,19.17
2017-08-17T18:08:46.958Z,18.60
2017-08-17T18:11:15.982Z,17.47
2017-08-17T18:13:46.246Z,17.50
2017-08-17T18:16:15.311Z,16.50
2017-08-17T18:18:44.837Z,16.70
2017-08-17T18:21:14.492Z,16.53
2017-08-17T18:26:17.463Z,14.97
2017-08-17T18:28:47.615Z,15.50
2017-08-17T18:31:16.381Z,16.40
2017-08-17T18:33:44.304Z,14.67
2017-08-17T18:36:14.726Z,15.13
2017-08-17T18:38:43.841Z,15.80
2017-08-17T18:41:12.666Z,14.13
2017-08-17T18:43:42.795Z,14.13
2017-08-17T18:46:12.625Z,14.20
2017-08-17T18:48:45.321Z,12.90
2017-08-17T18:51:14.649Z,14.03
2017-08-17T18:53:43.820Z,12.50
2017-08-17T18:56:13.298Z,12.67
2017-08-17T18:58:45.856Z,12.17
2017-08-17T19:01:16.293Z,13.50
2017-08-17T19:03:46.593Z,14.23
2017-08-17T19:06:14.819Z,13.40
2017-08-17T19:08:44.809Z,13.50
2017-08-17T19:13:47.969Z,14.17
2017-08-17T19:16:19.330Z,12.83
2017-08-17T19:18:48.255Z,13.20
2017-08-17T19:21:18.032Z,13.43
2017-08-17T19:23:47.437Z,12.40
2017-08-17T19:26:16.348Z,12.47
2017-08-17T19:28:46.769Z,12.37
2017-08-17T19:31:17.749Z,11.90
2017-08-17T19:33:47.408Z,12.77
2017-08-17T19:36:17.276Z,12.97
2017-08-17T19:38:46.461Z,12.97
2017-08-17T19:41:18.253Z,13.63
2017-08-17T19:43:47.568Z,12.50
2017-08-17T19:46:16.829Z,12.70
2017-08-17T19:48:51.517Z,14.00
2017-08-17T19:51:21.944Z,14.80
2017-08-17T19:53:52.210Z,14.10
2017-08-17T19:56:21.179Z,14.10
2017-08-17T19:58:52.043Z,13.00
2017-08-17T20:01:22.144Z,15.17
2017-08-17T20:03:52.577Z,15.10
2017-08-17T20:06:22.529Z,14.70
2017-08-17T20:08:52.085Z,15.17
2017-08-17T20:11:22.814Z,15.77
2017-08-17T20:13:52.927Z,15.80
2017-08-17T20:16:26.392Z,16.17
2017-08-17T20:18:58.402Z,15.87
2017-08-17T20:21:30.121Z,16.60
2017-08-17T20:24:00.540Z,16.17
2017-08-17T20:26:29.861Z,16.00
2017-08-17T20:29:02.525Z,16.97
2017-08-17T20:31:30.578Z,16.90
2017-08-17T20:33:59.329Z,16.40
2017-08-17T20:36:28.442Z,15.70
2017-08-17T20:38:57.335Z,16.77
2017-08-17T20:41:26.437Z,17.17
2017-08-17T20:43:54.234Z,17.10
2017-08-17T20:46:22.514Z,16.80
2017-08-17T20:48:50.758Z,17.30
2017-08-17T20:51:21.604Z,16.37
2017-08-17T20:53:51.403Z,15.97
2017-08-17T20:56:21.739Z,16.43
2017-08-17T20:58:50.437Z,17.50
2017-08-17T21:01:21.166Z,16.90
2017-08-17T21:03:49.646Z,17.60
2017-08-17T21:06:18.648Z,19.50
2017-08-17T21:08:47.700Z,18.47
2017-08-17T21:11:18.054Z,18.57
2017-08-17T21:13:47.272Z,17.57
2017-08-17T21:16:16.016Z,18.40
2017-08-17T21:18:44.758Z,18.57
2017-08-17T21:21:15.218Z,19.00
2017-08-17T21:23:44.176Z,19.23
2017-08-17T21:26:13.248Z,20.30
2017-08-17T21:28:43.165Z,18.47
2017-08-17T21:31:11.632Z,19.20
2017-08-17T21:33:40.652Z,19.47
2017-08-17T21:36:11.160Z,20.03
2017-08-17T21:38:39.944Z,20.20
2017-08-17T21:41:11.203Z,20.37
2017-08-17T21:43:43.921Z,20.27
2017-08-17T21:46:13.312Z,21.30
2017-08-17T21:48:42.271Z,21.90
2017-08-17T21:51:11.897Z,20.83
2017-08-17T21:53:40.240Z,21.77
2017-08-17T21:56:08.475Z,21.77
2017-08-17T21:58:37.792Z,22.80
2017-08-17T22:01:07.194Z,22.53
2017-08-17T22:03:35.799Z,22.93
2017-08-17T22:06:05.261Z,22.50
2017-08-17T22:08:33.517Z,23.07
2017-08-17T22:11:04.358Z,22.10
2017-08-17T22:13:34.553Z,21.63
2017-08-17T22:16:03.276Z,23.63
2017-08-17T22:18:31.200Z,21.53
2017-08-17T22:20:59.986Z,24.67
2017-08-17T22:23:28.454Z,24.83
2017-08-17T22:25:56.573Z,23.70
2017-08-17T22:28:25.880Z,24.47
2017-08-17T22:30:56.659Z,23.60
2017-08-17T22:33:27.017Z,25.67
2017-08-17T22:35:55.472Z,25.70
2017-08-17T22:38:24.541Z,23.87
2017-08-17T22:40:56.077Z,24.70
2017-08-17T22:43:25.124Z,23.77
2017-08-17T22:45:53.246Z,23.50
2017-08-17T22:48:21.864Z,24.03
2017-08-17T22:50:50.862Z,24.43
2017-08-17T22:53:21.547Z,23.73
2017-08-17T22:55:51.720Z,22.77
2017-08-17T22:58:20.478Z,25.37
2017-08-17T23:00:48.860Z,24.50
2017-08-17T23:03:19.332Z,24.50
2017-08-17T23:08:23.655Z,24.57
2017-08-17T23:10:54.133Z,24.00
2017-08-17T23:13:24.320Z,24.60
2017-08-17T23:15:58.040Z,24.87
2017-08-17T23:18:27.179Z,25.27
2017-08-17T23:20:55.965Z,24.97
2017-08-17T23:23:25.712Z,26.80
2017-08-17T23:25:54.861Z,24.40
2017-08-17T23:28:25.355Z,26.93
2017-08-17T23:30:53.801Z,24.50
2017-08-17T23:33:22.290Z,26.23
2017-08-17T23:35:52.734Z,25.00
2017-08-17T23:38:22.653Z,27.40
2017-08-17T23:40:51.587Z,25.43
2017-08-17T23:43:21.526Z,24.70
2017-08-17T23:45:49.892Z,26.53
2017-08-17T23:48:18.721Z,27.40
2017-08-17T23:50:48.847Z,25.80
2017-08-17T23:53:17.968Z,26.50
2017-08-17T23:55:47.348Z,25.40
2017-08-17T23:58:15.699Z,26.77
